Time;durP1;ratioP1;P1;durP2;ratioP2;P2;SDS_P1;SDS_P2;PMS_P1;PMS_P2;Temp;Humidity;BMP_temperature;BMP_pressure;BME280_temperature;BME280_humidity;BME280_pressure;Samples;Min_cycle;Max_cycle;Signal;HPM_P1;HPM_P2
2024/01/01 00:01:27;;;;;;;28.10;19.55;;;7.80;99.90;;;;;;7371014;19;21466;-68
2024/01/01 00:03:53;;;;;;;27.73;20.67;;;7.80;99.90;;;;;;7374946;19;20018;-67
2024/01/01 00:06:19;;;;;;;30.30;20.42;;;7.80;99.90;;;;;;7376393;19;20022;-61
2024/01/01 00:08:45;;;;;;;30.67;20.83;;;7.80;99.90;;;;;;7372980;19;20340;-61
2024/01/01 00:11:12;;;;;;;31.50;22.85;;;7.80;99.90;;;;;;7372200;19;20068;-61
2024/01/01 00:13:38;;;;;;;35.13;24.17;;;7.90;99.90;;;;;;7371895;19;20488;-61
2024/01/01 00:16:04;;;;;;;35.63;25.90;;;7.90;99.90;;;;;;7376917;19;20010;-67
2024/01/01 00:18:31;;;;;;;36.03;27.40;;;7.90;99.90;;;;;;7372838;19;20611;-61
2024/01/01 00:20:57;;;;;;;39.30;27.05;;;7.90;99.90;;;;;;7374326;19;20651;-61
2024/01/01 00:23:23;;;;;;;42.75;30.77;;;8.00;99.90;;;;;;7374301;19;20364;-61
2024/01/01 00:25:49;;;;;;;42.58;28.88;;;8.00;99.90;;;;;;7377930;19;20030;-68
2024/01/01 00:28:15;;;;;;;43.63;31.02;;;8.00;99.90;;;;;;7375554;19;20029;-68
2024/01/01 00:30:42;;;;;;;42.38;31.30;;;8.10;99.90;;;;;;7375272;19;20098;-68
2024/01/01 00:33:08;;;;;;;48.17;33.17;;;8.10;99.90;;;;;;7375435;19;20022;-68
2024/01/01 00:35:34;;;;;;;39.97;31.75;;;8.00;99.90;;;;;;7364748;19;20022;-68
2024/01/01 00:38:00;;;;;;;43.10;33.90;;;8.10;99.90;;;;;;7370285;19;20026;-68
2024/01/01 00:40:27;;;;;;;45.85;33.58;;;8.10;99.90;;;;;;7373583;19;20948;-68
2024/01/01 00:42:54;;;;;;;42.20;34.65;;;8.10;99.90;;;;;;7371806;19;20090;-69
2024/01/01 00:45:40;;;;;;;43.03;35.13;;;8.10;99.90;;;;;;7374920;19;20074;-68
2024/01/01 00:48:06;;;;;;;40.00;30.67;;;8.10;99.90;;;;;;7374753;19;20022;-68
2024/01/01 00:50:33;;;;;;;40.03;31.77;;;8.10;99.90;;;;;;7374164;19;20026;-62
2024/01/01 00:52:59;;;;;;;40.83;30.55;;;8.10;99.90;;;;;;7374541;19;20116;-62
2024/01/01 00:55:25;;;;;;;35.70;28.17;;;8.10;99.90;;;;;;7371244;19;20658;-62
2024/01/01 00:57:51;;;;;;;38.80;26.20;;;8.20;99.90;;;;;;7373645;19;20573;-62
2024/01/01 01:00:18;;;;;;;39.42;26.33;;;8.30;99.90;;;;;;7373524;19;20014;-69
2024/01/01 01:02:44;;;;;;;34.92;24.98;;;8.20;99.90;;;;;;7371795;19;20090;-69
2024/01/01 01:05:30;;;;;;;33.20;23.45;;;8.20;99.90;;;;;;7370837;19;20022;-69
2024/01/01 01:07:56;;;;;;;30.27;20.92;;;8.30;99.90;;;;;;7375107;19;20026;-69
2024/01/01 01:10:23;;;;;;;34.47;22.60;;;8.30;99.90;;;;;;7369816;19;20019;-69
2024/01/01 01:12:53;;;;;;;30.13;22.23;;;8.30;99.90;;;;;;7373353;19;20018;-69
2024/01/01 01:15:21;;;;;;;34.45;20.85;;;8.30;99.90;;;;;;7369111;19;20025;-69
2024/01/01 01:17:48;;;;;;;33.67;21.48;;;8.30;99.90;;;;;;7372708;19;20038;-69
2024/01/01 01:20:14;;;;;;;31.13;22.10;;;8.20;99.90;;;;;;7370606;19;20382;-69
2024/01/01 01:22:40;;;;;;;32.05;21.73;;;8.10;99.90;;;;;;7377002;19;20496;-69
2024/01/01 01:25:07;;;;;;;34.88;23.25;;;8.10;99.90;;;;;;7368672;19;20100;-62
2024/01/01 01:27:33;;;;;;;35.35;24.55;;;8.00;99.90;;;;;;7373598;19;20047;-62
2024/01/01 01:30:00;;;;;;;38.00;26.80;;;8.00;99.90;;;;;;7371517;19;20022;-69
2024/01/01 01:32:26;;;;;;;42.33;27.40;;;8.00;99.90;;;;;;7372209;19;20025;-69
2024/01/01 01:34:52;;;;;;;41.45;30.23;;;8.10;99.90;;;;;;7372802;19;20035;-69
2024/01/01 01:37:19;;;;;;;43.17;33.95;;;8.10;99.90;;;;;;7371828;19;20043;-69
2024/01/01 01:39:46;;;;;;;43.95;31.98;;;8.10;99.90;;;;;;7371471;19;20755;-62
2024/01/01 01:42:12;;;;;;;41.97;32.30;;;8.10;99.90;;;;;;7374293;19;20014;-62
2024/01/01 01:44:39;;;;;;;45.17;32.50;;;8.10;99.90;;;;;;7372877;19;20038;-63
2024/01/01 01:47:06;;;;;;;42.72;34.22;;;8.10;99.90;;;;;;7372111;19;20078;-62
2024/01/01 01:49:33;;;;;;;47.42;34.95;;;8.10;99.90;;;;;;7371784;19;20014;-62
2024/01/01 01:52:02;;;;;;;46.78;33.95;;;8.20;99.90;;;;;;7369062;19;20023;-62
2024/01/01 01:54:31;;;;;;;50.22;37.47;;;8.20;99.90;;;;;;7371943;19;20022;-62
2024/01/01 01:56:57;;;;;;;48.33;37.58;;;8.20;99.90;;;;;;7369071;19;20487;-69
2024/01/01 01:59:24;;;;;;;44.33;33.67;;;8.20;99.90;;;;;;7370047;19;20032;-69
2024/01/01 02:01:51;;;;;;;50.92;36.83;;;8.20;99.90;;;;;;7367303;19;20022;-68
2024/01/01 02:04:17;;;;;;;45.22;36.05;;;8.20;99.90;;;;;;7369968;19;20025;-62
2024/01/01 02:06:45;;;;;;;49.30;36.90;;;8.20;99.90;;;;;;7369392;19;20019;-63
2024/01/01 02:09:11;;;;;;;41.88;33.72;;;8.20;99.90;;;;;;7375284;19;20051;-62
2024/01/01 02:11:37;;;;;;;43.33;32.50;;;8.20;99.90;;;;;;7368395;19;20019;-62
2024/01/01 02:14:15;;;;;;;38.50;30.98;;;8.20;99.90;;;;;;7372792;19;20082;-62
2024/01/01 02:16:43;;;;;;;38.03;29.27;;;8.30;99.90;;;;;;7366377;19;20019;-62
2024/01/01 02:19:19;;;;;;;36.63;27.83;;;8.30;99.90;;;;;;7371893;19;20029;-62
2024/01/01 02:21:46;;;;;;;35.22;26.10;;;8.30;99.90;;;;;;7369195;19;20277;-62
2024/01/01 02:24:15;;;;;;;31.48;25.40;;;8.30;99.90;;;;;;7374061;19;20025;-62
2024/01/01 02:26:43;;;;;;;30.75;26.02;;;8.20;99.90;;;;;;7369993;19;20105;-62
2024/01/01 02:29:10;;;;;;;31.02;23.27;;;8.00;99.90;;;;;;7371396;19;20683;-62
2024/01/01 02:31:36;;;;;;;33.25;23.90;;;8.10;99.90;;;;;;7368597;19;20014;-62
2024/01/01 02:34:03;;;;;;;25.65;21.75;;;8.00;99.90;;;;;;7370702;19;20022;-62
2024/01/01 02:36:30;;;;;;;31.50;20.55;;;8.10;99.90;;;;;;7368737;19;20014;-62
2024/01/01 02:38:56;;;;;;;27.63;17.63;;;8.00;99.90;;;;;;7369683;19;20347;-62
2024/01/01 02:41:22;;;;;;;22.45;15.18;;;8.00;99.90;;;;;;7371788;19;20075;-62
2024/01/01 02:43:48;;;;;;;21.63;15.02;;;7.90;99.90;;;;;;7369218;19;20022;-62
2024/01/01 02:46:15;;;;;;;22.88;15.32;;;7.70;99.90;;;;;;7374649;19;20011;-63
2024/01/01 02:48:41;;;;;;;23.52;14.38;;;7.60;99.90;;;;;;7371131;19;20025;-62
2024/01/01 02:51:08;;;;;;;19.05;12.10;;;7.50;99.90;;;;;;7368418;19;20094;-62
2024/01/01 02:53:34;;;;;;;25.33;13.95;;;7.30;99.90;;;;;;7370495;19;20015;-63
2024/01/01 02:56:01;;;;;;;18.92;11.68;;;7.30;99.90;;;;;;7373886;19;20057;-63
2024/01/01 02:58:27;;;;;;;15.65;10.02;;;7.20;99.90;;;;;;7367696;19;20115;-62
2024/01/01 03:00:54;;;;;;;15.50;8.75;;;7.20;99.90;;;;;;7371125;19;20022;-62
2024/01/01 03:03:20;;;;;;;16.15;8.52;;;7.20;99.90;;;;;;7370891;19;20023;-62
2024/01/01 03:05:49;;;;;;;15.82;8.23;;;7.20;99.90;;;;;;7369186;19;20031;-62
2024/01/01 03:08:15;;;;;;;13.23;7.38;;;7.20;99.90;;;;;;7366351;19;20038;-62
2024/01/01 03:10:41;;;;;;;16.50;7.20;;;7.20;99.90;;;;;;7370848;19;20025;-69
2024/01/01 03:13:08;;;;;;;11.10;5.68;;;7.20;99.90;;;;;;7367537;19;20033;-68
2024/01/01 03:15:34;;;;;;;13.65;5.85;;;7.20;99.90;;;;;;7366017;19;20015;-69
2024/01/01 03:18:00;;;;;;;14.40;6.20;;;7.20;99.90;;;;;;7370593;19;20661;-68
2024/01/01 03:20:31;;;;;;;16.20;5.45;;;7.10;99.90;;;;;;7369069;19;20488;-68
2024/01/01 03:22:57;;;;;;;9.75;5.65;;;7.00;99.90;;;;;;7370879;19;20029;-68
2024/01/01 03:25:23;;;;;;;12.10;5.63;;;7.00;99.90;;;;;;7370527;19;20852;-67
2024/01/01 03:27:49;;;;;;;9.68;4.78;;;7.00;99.90;;;;;;7369649;19;20018;-67
2024/01/01 03:30:17;;;;;;;11.68;4.93;;;6.90;99.90;;;;;;7367667;19;20025;-67
2024/01/01 03:32:43;;;;;;;13.52;5.25;;;6.90;99.90;;;;;;7365099;19;20027;-62
2024/01/01 03:35:09;;;;;;;11.60;4.78;;;6.90;99.90;;;;;;7370318;19;20857;-62
2024/01/01 03:37:56;;;;;;;11.18;4.10;;;6.90;99.90;;;;;;7370409;19;20025;-67
2024/01/01 03:40:22;;;;;;;10.57;4.57;;;6.90;99.90;;;;;;7370378;19;20030;-67
2024/01/01 03:42:48;;;;;;;11.68;4.53;;;6.90;99.90;;;;;;7362083;19;20019;-68
2024/01/01 03:45:15;;;;;;;11.65;4.30;;;6.90;99.90;;;;;;7370200;19;20018;-67
2024/01/01 03:47:42;;;;;;;13.18;4.03;;;6.80;99.90;;;;;;7368337;19;20022;-62
2024/01/01 03:50:09;;;;;;;10.07;3.95;;;6.80;99.90;;;;;;7369147;19;20026;-62
2024/01/01 03:52:35;;;;;;;9.57;3.83;;;6.90;99.90;;;;;;7366947;19;20026;-62
2024/01/01 03:55:03;;;;;;;12.77;3.63;;;6.90;99.90;;;;;;7369864;19;20030;-62
2024/01/01 03:57:50;;;;;;;14.07;3.95;;;6.90;99.90;;;;;;7369223;19;20079;-62
2024/01/01 04:00:16;;;;;;;7.35;3.33;;;6.80;99.90;;;;;;7369755;19;20022;-62
2024/01/01 04:02:42;;;;;;;11.07;3.30;;;6.90;99.90;;;;;;7367891;19;20014;-62
2024/01/01 04:05:10;;;;;;;9.55;2.95;;;6.80;99.90;;;;;;7371807;19;20023;-62
2024/01/01 04:07:37;;;;;;;7.40;3.00;;;6.90;99.90;;;;;;7368776;19;20026;-64
2024/01/01 04:10:05;;;;;;;13.25;3.13;;;6.90;99.90;;;;;;7379076;19;20019;-67
2024/01/01 04:12:31;;;;;;;10.55;3.22;;;6.90;99.90;;;;;;7376676;19;20657;-67
2024/01/01 04:14:57;;;;;;;8.43;2.67;;;6.90;99.90;;;;;;7374906;19;20030;-67
2024/01/01 04:17:24;;;;;;;7.43;2.70;;;6.90;99.90;;;;;;7376585;19;20029;-67
2024/01/01 04:19:50;;;;;;;9.32;3.33;;;6.90;99.90;;;;;;7376975;19;20019;-67
2024/01/01 04:22:38;;;;;;;9.10;2.80;;;6.90;99.90;;;;;;7373097;19;20036;-67
2024/01/01 04:25:05;;;;;;;10.02;2.90;;;6.90;99.90;;;;;;7374563;19;20029;-67
2024/01/01 04:27:31;;;;;;;11.40;3.88;;;6.90;99.90;;;;;;7375349;19;20018;-68
2024/01/01 04:29:57;;;;;;;9.30;2.97;;;6.80;99.90;;;;;;7377159;19;20022;-67
2024/01/01 04:32:24;;;;;;;10.98;2.90;;;6.70;99.90;;;;;;7376161;19;20026;-66
2024/01/01 04:34:51;;;;;;;11.23;3.63;;;6.70;99.90;;;;;;7370747;19;20010;-66
2024/01/01 04:37:17;;;;;;;10.52;3.50;;;6.60;99.90;;;;;;7375709;19;20020;-66
2024/01/01 04:39:43;;;;;;;12.98;3.40;;;6.60;99.90;;;;;;7373086;19;20476;-66
2024/01/01 04:42:29;;;;;;;13.13;3.85;;;6.60;99.90;;;;;;7375107;19;20018;-67
2024/01/01 04:44:56;;;;;;;14.38;4.38;;;6.50;99.90;;;;;;7372406;19;20022;-68
2024/01/01 04:47:22;;;;;;;14.48;4.00;;;6.50;99.90;;;;;;7377263;19;20022;-67
2024/01/01 04:49:49;;;;;;;8.88;3.90;;;6.50;99.90;;;;;;7373850;19;20024;-67
2024/01/01 04:52:15;;;;;;;16.35;3.85;;;6.50;99.90;;;;;;7375438;19;20058;-67
2024/01/01 04:54:41;;;;;;;17.35;4.60;;;6.50;99.90;;;;;;7372344;19;20014;-67
2024/01/01 04:57:08;;;;;;;17.02;4.60;;;6.60;99.90;;;;;;7378362;19;20026;-67
2024/01/01 04:59:34;;;;;;;11.65;4.15;;;6.50;99.90;;;;;;7373190;19;20372;-67
2024/01/01 05:02:00;;;;;;;12.70;4.15;;;6.50;99.90;;;;;;7376504;19;20015;-67
2024/01/01 05:04:26;;;;;;;21.27;4.93;;;6.60;99.90;;;;;;7373049;19;20015;-67
2024/01/01 05:06:52;;;;;;;12.20;4.20;;;6.50;99.90;;;;;;7375518;19;20094;-66
2024/01/01 05:09:19;;;;;;;18.85;5.55;;;6.60;99.90;;;;;;7375380;19;20043;-67
2024/01/01 05:11:45;;;;;;;10.07;4.63;;;6.50;99.90;;;;;;7375129;19;20081;-66
2024/01/01 05:14:11;;;;;;;16.38;4.88;;;6.60;99.90;;;;;;7375212;19;20015;-66
2024/01/01 05:16:39;;;;;;;15.07;4.63;;;6.60;99.90;;;;;;7372795;19;20032;-66
2024/01/01 05:19:05;;;;;;;17.60;4.53;;;6.60;99.90;;;;;;7374638;19;20026;-66
2024/01/01 05:21:31;;;;;;;13.20;4.03;;;6.70;99.90;;;;;;7370870;19;20992;-66
2024/01/01 05:23:57;;;;;;;17.95;4.88;;;6.70;99.90;;;;;;7372018;19;20038;-66
2024/01/01 05:26:24;;;;;;;16.63;5.40;;;6.70;99.90;;;;;;7373373;19;20748;-66
2024/01/01 05:28:50;;;;;;;12.30;4.43;;;6.60;99.90;;;;;;7373080;19;20019;-66
2024/01/01 05:31:20;;;;;;;18.88;5.88;;;6.70;99.90;;;;;;7373194;19;20042;-66
2024/01/01 05:33:47;;;;;;;19.58;5.07;;;6.70;99.90;;;;;;7374663;19;20018;-66
2024/01/01 05:36:33;;;;;;;15.88;4.65;;;6.70;99.90;;;;;;7372564;19;20050;-66
2024/01/01 05:38:59;;;;;;;15.70;5.20;;;6.80;99.90;;;;;;7374582;19;20018;-62
2024/01/01 05:41:26;;;;;;;20.45;5.60;;;6.70;99.90;;;;;;7373253;19;20014;-62
2024/01/01 05:43:52;;;;;;;20.08;5.07;;;6.80;99.90;;;;;;7369525;19;20022;-62
2024/01/01 05:46:19;;;;;;;20.95;5.43;;;6.70;99.90;;;;;;7374631;19;20026;-62
2024/01/01 05:48:45;;;;;;;16.92;5.00;;;6.80;99.90;;;;;;7371444;19;20019;-66
2024/01/01 05:51:12;;;;;;;15.48;6.03;;;6.70;99.90;;;;;;7374415;19;20014;-66
2024/01/01 05:53:39;;;;;;;24.65;6.68;;;6.70;99.90;;;;;;7372815;19;20026;-66
2024/01/01 05:56:25;;;;;;;19.42;6.47;;;6.70;99.90;;;;;;7374159;19;20010;-65
2024/01/01 05:58:51;;;;;;;13.27;5.65;;;6.80;99.90;;;;;;7370235;19;20014;-65
2024/01/01 06:01:18;;;;;;;12.50;4.88;;;6.80;99.90;;;;;;7373988;19;20140;-65
2024/01/01 06:03:45;;;;;;;17.40;5.85;;;6.80;99.90;;;;;;7367572;19;20096;-65
2024/01/01 06:06:31;;;;;;;19.60;6.25;;;6.80;99.90;;;;;;7371557;19;20027;-65
2024/01/01 06:08:58;;;;;;;12.27;4.90;;;6.80;99.90;;;;;;7373926;19;20022;-65
2024/01/01 06:11:24;;;;;;;16.00;5.57;;;6.80;99.90;;;;;;7370592;19;20110;-65
2024/01/01 06:13:51;;;;;;;12.23;4.18;;;6.80;99.90;;;;;;7369087;19;20026;-65
2024/01/01 06:16:17;;;;;;;13.38;5.72;;;6.70;99.90;;;;;;7372449;19;20573;-65
2024/01/01 06:18:44;;;;;;;15.70;5.57;;;6.80;99.90;;;;;;7371326;19;20022;-65
2024/01/01 06:21:10;;;;;;;18.52;6.00;;;6.80;99.90;;;;;;7374375;19;20026;-66
2024/01/01 06:23:39;;;;;;;14.15;5.50;;;6.90;99.90;;;;;;7371753;19;20078;-65
2024/01/01 06:26:05;;;;;;;17.58;6.07;;;6.80;99.90;;;;;;7370267;19;20106;-65
2024/01/01 06:28:32;;;;;;;14.32;5.07;;;6.90;99.90;;;;;;7371168;19;20022;-65
2024/01/01 06:30:58;;;;;;;14.38;4.80;;;6.80;99.90;;;;;;7372359;19;20734;-65
2024/01/01 06:33:24;;;;;;;13.90;4.90;;;6.80;99.90;;;;;;7374481;19;20018;-66
2024/01/01 06:35:50;;;;;;;19.17;5.57;;;6.90;99.90;;;;;;7366893;19;20018;-66
2024/01/01 06:38:17;;;;;;;15.48;5.25;;;6.80;99.90;;;;;;7372602;19;20376;-65
2024/01/01 06:40:43;;;;;;;16.02;5.07;;;6.90;99.90;;;;;;7376942;19;20390;-66
2024/01/01 06:43:09;;;;;;;11.60;4.97;;;6.90;99.90;;;;;;7375086;19;20015;-67
2024/01/01 06:45:36;;;;;;;17.25;5.70;;;6.90;99.90;;;;;;7371978;19;20018;-67
2024/01/01 06:48:02;;;;;;;13.70;4.80;;;6.80;99.90;;;;;;7376263;19;20025;-66
2024/01/01 06:50:28;;;;;;;12.30;5.13;;;6.90;99.90;;;;;;7377516;19;20018;-66
2024/01/01 06:52:55;;;;;;;15.48;5.68;;;6.80;99.90;;;;;;7376522;19;20023;-67
2024/01/01 06:55:22;;;;;;;15.85;5.10;;;6.90;99.90;;;;;;7367568;19;20370;-62
2024/01/01 06:57:48;;;;;;;14.60;5.93;;;6.90;99.90;;;;;;7371544;19;20025;-62
2024/01/01 07:00:15;;;;;;;18.48;6.30;;;6.80;99.90;;;;;;7372979;19;20787;-62
2024/01/01 07:02:43;;;;;;;14.98;5.63;;;6.90;99.90;;;;;;7369013;19;20670;-62
2024/01/01 07:05:09;;;;;;;16.85;5.93;;;6.70;99.90;;;;;;7372749;19;20078;-63
2024/01/01 07:07:35;;;;;;;16.83;5.45;;;6.80;99.90;;;;;;7370841;19;20026;-62
2024/01/01 07:10:02;;;;;;;15.15;5.68;;;6.80;99.90;;;;;;7369785;19;20034;-62
2024/01/01 07:12:28;;;;;;;15.30;6.30;;;6.70;99.90;;;;;;7370632;19;20026;-62
2024/01/01 07:14:55;;;;;;;11.38;5.43;;;6.80;99.90;;;;;;7367310;19;20015;-62
2024/01/01 07:17:21;;;;;;;11.77;4.63;;;6.70;99.90;;;;;;7372219;19;20409;-62
2024/01/01 07:19:47;;;;;;;13.23;4.97;;;6.70;99.90;;;;;;7372398;19;20019;-63
2024/01/01 07:22:14;;;;;;;21.55;5.43;;;6.60;99.90;;;;;;7371623;19;20026;-65
2024/01/01 07:24:41;;;;;;;13.43;4.97;;;6.60;99.90;;;;;;7369782;19;20039;-64
2024/01/01 07:27:08;;;;;;;16.30;6.15;;;6.60;99.90;;;;;;7370747;19;20030;-62
2024/01/01 07:29:34;;;;;;;11.82;4.00;;;6.60;99.90;;;;;;7368678;19;20046;-63
2024/01/01 07:32:20;;;;;;;10.18;4.20;;;6.60;99.90;;;;;;7368889;19;20022;-63
2024/01/01 07:34:47;;;;;;;11.88;5.30;;;6.70;99.90;;;;;;7369500;19;20074;-62
2024/01/01 07:37:13;;;;;;;10.50;4.75;;;6.70;99.90;;;;;;7370119;19;20019;-63
2024/01/01 07:39:45;;;;;;;10.13;4.85;;;6.70;99.90;;;;;;7369300;19;20021;-63
2024/01/01 07:42:12;;;;;;;14.52;5.47;;;6.80;99.90;;;;;;7369431;19;20022;-62
2024/01/01 07:44:40;;;;;;;11.32;5.18;;;6.70;99.90;;;;;;7372182;19;20081;-63
2024/01/01 07:47:08;;;;;;;13.27;5.30;;;6.80;99.90;;;;;;7376726;19;20026;-63
2024/01/01 07:49:34;;;;;;;14.57;5.93;;;6.80;99.90;;;;;;7378395;19;20014;-63
2024/01/01 07:52:01;;;;;;;11.57;5.80;;;6.90;99.90;;;;;;7378632;19;21432;-63
2024/01/01 07:54:28;;;;;;;14.23;6.35;;;6.80;99.90;;;;;;7374926;19;20722;-63
2024/01/01 07:56:55;;;;;;;12.60;6.38;;;6.80;99.90;;;;;;7373140;19;20018;-63
2024/01/01 07:59:21;;;;;;;16.55;6.55;;;6.80;99.90;;;;;;7376778;19;20026;-63
2024/01/01 08:01:47;;;;;;;22.02;6.57;;;6.90;99.90;;;;;;7370790;19;20018;-63
2024/01/01 08:04:14;;;;;;;15.07;6.28;;;6.90;99.90;;;;;;7374230;19;20030;-63
2024/01/01 08:06:40;;;;;;;20.08;6.65;;;6.90;99.90;;;;;;7374109;19;20022;-63
2024/01/01 08:09:06;;;;;;;14.13;6.68;;;6.90;99.90;;;;;;7377969;19;20032;-63
2024/01/01 08:11:32;;;;;;;18.13;6.65;;;6.90;99.90;;;;;;7375667;19;20086;-63
2024/01/01 08:13:58;;;;;;;11.32;5.60;;;6.90;99.90;;;;;;7371514;19;20014;-63
2024/01/01 08:16:25;;;;;;;15.88;6.47;;;6.90;99.90;;;;;;7372270;19;20058;-63
2024/01/01 08:18:54;;;;;;;18.17;6.18;;;6.90;99.90;;;;;;7373863;19;20600;-63
2024/01/01 08:21:21;;;;;;;14.73;6.53;;;6.90;99.90;;;;;;7374381;19;20025;-64
2024/01/01 08:23:48;;;;;;;19.50;6.75;;;7.00;99.90;;;;;;7371908;19;20031;-64
2024/01/01 08:26:14;;;;;;;15.82;6.78;;;7.00;99.90;;;;;;7378906;19;20018;-64
2024/01/01 08:28:40;;;;;;;16.98;6.35;;;7.00;99.90;;;;;;7373270;19;20378;-64
2024/01/01 08:31:10;;;;;;;19.63;6.60;;;6.90;99.90;;;;;;7377096;19;20014;-64
2024/01/01 08:33:36;;;;;;;17.20;6.60;;;6.90;99.90;;;;;;7376666;19;20047;-64
2024/01/01 08:36:04;;;;;;;16.85;6.00;;;6.90;99.90;;;;;;7366428;19;20035;-64
2024/01/01 08:38:30;;;;;;;13.45;5.85;;;7.00;99.90;;;;;;7375772;19;20054;-65
2024/01/01 08:40:57;;;;;;;15.38;5.75;;;6.90;99.90;;;;;;7373060;19;20466;-64
2024/01/01 08:43:23;;;;;;;22.60;6.68;;;7.00;99.90;;;;;;7374929;19;20021;-63
2024/01/01 08:45:49;;;;;;;75.22;53.63;;;6.90;99.90;;;;;;7371530;19;20014;-63
2024/01/01 08:48:15;;;;;;;12.30;5.03;;;7.00;99.90;;;;;;7373647;19;20022;-63
2024/01/01 08:50:42;;;;;;;16.70;5.30;;;7.00;99.90;;;;;;7371234;19;20561;-63
2024/01/01 08:53:08;;;;;;;16.38;5.47;;;6.90;99.90;;;;;;7375817;19;20019;-63
2024/01/01 08:55:35;;;;;;;15.27;5.45;;;6.90;99.90;;;;;;7368628;19;20038;-64
2024/01/01 08:58:01;;;;;;;17.27;4.78;;;7.00;99.90;;;;;;7374383;19;20753;-63
2024/01/01 09:00:28;;;;;;;13.18;4.38;;;7.00;99.90;;;;;;7376069;19;20453;-67
2024/01/01 09:02:54;;;;;;;12.27;5.50;;;7.00;99.90;;;;;;7374061;19;20041;-66
2024/01/01 09:05:20;;;;;;;12.38;4.15;;;7.00;99.90;;;;;;7373130;19;20025;-67
2024/01/01 09:07:46;;;;;;;19.95;5.75;;;7.00;99.90;;;;;;7372855;19;20022;-68
2024/01/01 09:10:33;;;;;;;14.10;4.07;;;6.90;99.90;;;;;;7374803;19;20116;-65
2024/01/01 09:12:59;;;;;;;13.07;4.65;;;6.90;99.90;;;;;;7371209;19;20656;-65
2024/01/01 09:15:25;;;;;;;11.50;4.22;;;6.90;99.90;;;;;;7373500;19;20019;-64
2024/01/01 09:18:11;;;;;;;14.43;5.10;;;6.90;99.90;;;;;;7372556;19;20394;-63
2024/01/01 09:20:41;;;;;;;14.32;4.82;;;6.90;99.90;;;;;;7373060;19;20015;-65
2024/01/01 09:23:08;;;;;;;17.52;4.82;;;7.00;99.90;;;;;;7371077;19;20019;-64
2024/01/01 09:25:38;;;;;;;17.17;6.28;;;7.00;99.90;;;;;;7378618;19;20395;-67
2024/01/01 09:28:04;;;;;;;17.90;5.82;;;7.00;99.90;;;;;;7378143;19;20014;-67
2024/01/01 09:30:30;;;;;;;12.52;5.45;;;7.00;99.90;;;;;;7383311;19;20034;-67
2024/01/01 09:32:57;;;;;;;12.88;5.13;;;7.10;99.90;;;;;;7381973;19;20610;-68
2024/01/01 09:35:23;;;;;;;10.88;4.63;;;7.10;99.90;;;;;;7381003;19;20026;-67
2024/01/01 09:37:54;;;;;;;15.35;5.32;;;7.10;99.90;;;;;;7373936;19;20015;-66
2024/01/01 09:40:21;;;;;;;13.93;5.40;;;7.10;99.90;;;;;;7378087;19;20074;-66
2024/01/01 09:42:48;;;;;;;15.25;5.95;;;7.20;99.90;;;;;;7381907;19;20021;-67
2024/01/01 09:45:14;;;;;;;12.60;5.38;;;7.10;99.90;;;;;;7377175;19;20023;-63
2024/01/01 09:47:42;;;;;;;19.00;5.05;;;7.20;99.90;;;;;;7369052;19;20018;-64
2024/01/01 09:50:09;;;;;;;13.38;4.25;;;7.20;99.90;;;;;;7369795;19;20022;-64
2024/01/01 09:52:38;;;;;;;13.05;3.58;;;7.20;99.90;;;;;;7374926;19;20478;-63
2024/01/01 09:55:05;;;;;;;12.77;3.47;;;7.20;99.90;;;;;;7377020;19;20025;-67
2024/01/01 09:57:32;;;;;;;10.45;3.92;;;7.20;99.90;;;;;;7380635;19;20011;-68
2024/01/01 10:00:00;;;;;;;12.43;3.60;;;7.20;99.90;;;;;;7383346;19;20507;-67
2024/01/01 10:02:28;;;;;;;14.52;4.32;;;7.20;99.90;;;;;;7385937;19;20474;-66
2024/01/01 10:05:11;;;;;;;14.77;4.53;;;7.30;99.90;;;;;;7384636;19;20014;-67
2024/01/01 10:07:37;;;;;;;12.10;3.55;;;7.30;99.90;;;;;;7382718;19;20014;-67
2024/01/01 10:10:04;;;;;;;10.00;3.80;;;7.40;99.90;;;;;;7385999;19;20018;-67
2024/01/01 10:12:32;;;;;;;12.98;3.72;;;7.40;99.90;;;;;;7387314;19;20402;-67
2024/01/01 10:14:59;;;;;;;13.82;4.15;;;7.30;99.90;;;;;;7374163;19;20018;-67
2024/01/01 10:17:26;;;;;;;11.75;4.03;;;7.40;99.90;;;;;;7386097;19;20014;-67
2024/01/01 10:19:59;;;;;;;13.18;3.70;;;7.30;99.90;;;;;;7372446;19;20011;-64
2024/01/01 10:22:30;;;;;;;12.40;3.28;;;7.30;99.90;;;;;;7373376;19;20015;-64
2024/01/01 10:25:09;;;;;;;13.95;3.53;;;7.30;99.90;;;;;;7370276;19;20620;-64
2024/01/01 10:27:36;;;;;;;11.07;3.25;;;7.20;99.90;;;;;;7382554;19;20025;-66
2024/01/01 10:30:05;;;;;;;10.38;2.83;;;7.20;99.90;;;;;;7386281;19;20018;-67
2024/01/01 10:32:33;;;;;;;13.05;3.03;;;7.20;99.90;;;;;;7384755;19;20943;-63
2024/01/01 10:35:01;;;;;;;9.65;3.17;;;7.20;99.90;;;;;;7375791;19;20453;-63
2024/01/01 10:37:29;;;;;;;10.18;2.60;;;7.30;99.90;;;;;;7370833;19;20019;-63
2024/01/01 10:40:04;;;;;;;8.07;3.10;;;7.60;99.90;;;;;;7372421;19;20032;-63
2024/01/01 10:42:33;;;;;;;9.02;3.33;;;7.80;99.90;;;;;;7371640;19;20014;-64
2024/01/01 10:45:03;;;;;;;10.40;3.15;;;7.70;99.90;;;;;;7369683;19;20035;-63
2024/01/01 10:47:31;;;;;;;9.38;3.25;;;7.70;99.90;;;;;;7365663;19;20572;-64
2024/01/01 10:50:30;;;;;;;9.20;3.30;;;7.60;99.90;;;;;;7378551;19;20251;-63
2024/01/01 10:53:00;;;;;;;12.35;3.22;;;7.60;99.90;;;;;;7382620;19;20476;-66
2024/01/01 10:55:58;;;;;;;14.13;3.47;;;7.50;99.90;;;;;;7383583;19;20360;-67
2024/01/01 10:58:47;;;;;;;12.27;3.00;;;7.60;99.90;;;;;;7376395;19;20532;-64
2024/01/01 11:01:19;;;;;;;12.95;2.50;;;7.50;99.90;;;;;;7370101;19;20014;-63
2024/01/01 11:03:46;;;;;;;11.13;2.70;;;7.40;99.90;;;;;;7378708;19;20018;-66
2024/01/01 11:06:29;;;;;;;12.48;3.50;;;7.50;99.90;;;;;;7388015;19;20071;-63
2024/01/01 11:08:56;;;;;;;9.45;2.50;;;7.60;99.90;;;;;;7362845;19;20145;-63
2024/01/01 11:11:27;;;;;;;11.77;3.08;;;7.50;99.90;;;;;;7369156;19;20038;-63
2024/01/01 11:13:55;;;;;;;11.23;2.28;;;7.50;99.90;;;;;;7370314;19;20019;-66
2024/01/01 11:16:22;;;;;;;10.73;2.45;;;7.40;99.90;;;;;;7385536;19;20018;-67
2024/01/01 11:18:48;;;;;;;12.52;2.40;;;7.30;99.90;;;;;;7382359;19;20026;-63
2024/01/01 11:21:30;;;;;;;9.55;2.50;;;7.30;99.90;;;;;;7375905;19;20501;-66
2024/01/01 11:24:01;;;;;;;15.77;2.80;;;7.30;99.90;;;;;;7376781;19;20032;-64
2024/01/01 11:26:27;;;;;;;8.13;2.33;;;7.30;99.90;;;;;;7374228;19;20467;-64
2024/01/01 11:28:56;;;;;;;12.15;2.20;;;7.40;99.90;;;;;;7371760;19;20022;-64
2024/01/01 11:31:24;;;;;;;10.60;2.20;;;7.50;99.90;;;;;;7366879;19;20018;-63
2024/01/01 11:34:16;;;;;;;11.07;2.13;;;7.50;99.90;;;;;;7382167;19;20019;-66
2024/01/01 11:36:42;;;;;;;9.85;2.03;;;7.40;99.90;;;;;;7386930;19;20018;-65
2024/01/01 11:39:09;;;;;;;11.40;2.10;;;7.40;99.90;;;;;;7377206;19;20021;-64
2024/01/01 11:41:37;;;;;;;10.10;1.80;;;7.40;99.90;;;;;;7386926;19;20412;-68
2024/01/01 11:44:11;;;;;;;14.38;2.88;;;7.50;99.90;;;;;;7396286;19;20021;-67
2024/01/01 11:46:38;;;;;;;13.20;2.80;;;7.60;99.90;;;;;;7395171;19;20018;-68
2024/01/01 11:49:05;;;;;;;9.82;2.38;;;7.70;99.90;;;;;;7374031;19;20042;-64
2024/01/01 11:51:47;;;;;;;10.35;2.45;;;8.00;99.90;;;;;;7373455;19;20474;-64
2024/01/01 11:54:14;;;;;;;12.65;2.47;;;8.10;99.90;;;;;;7382605;19;20022;-68
2024/01/01 11:56:46;;;;;;;14.88;3.10;;;8.00;99.90;;;;;;7394424;19;20011;-67
2024/01/01 11:59:15;;;;;;;13.20;2.70;;;8.10;99.90;;;;;;7393963;19;20486;-67
2024/01/01 12:01:45;;;;;;;10.05;3.10;;;8.20;99.90;;;;;;7388001;19;20022;-63
2024/01/01 12:04:12;;;;;;;11.48;2.63;;;8.10;99.90;;;;;;7371019;19;20109;-63
2024/01/01 12:06:38;;;;;;;7.95;2.70;;;8.00;99.90;;;;;;7382215;19;20022;-68
2024/01/01 12:09:05;;;;;;;10.95;2.80;;;8.00;99.90;;;;;;7392278;19;20049;-67
2024/01/01 12:11:32;;;;;;;8.90;2.95;;;8.00;99.90;;;;;;7371820;19;20421;-63
2024/01/01 12:13:59;;;;;;;11.73;2.90;;;7.90;99.90;;;;;;7368447;19;20019;-65
2024/01/01 12:16:26;;;;;;;13.15;2.90;;;7.90;99.90;;;;;;7369536;19;20023;-64
2024/01/01 12:19:00;;;;;;;13.63;3.00;;;7.90;99.90;;;;;;7370400;19;20039;-64
2024/01/01 12:21:43;;;;;;;9.13;2.85;;;7.80;99.90;;;;;;7369630;19;20382;-64
2024/01/01 12:24:14;;;;;;;9.35;2.70;;;7.90;99.90;;;;;;7373969;19;20082;-64
2024/01/01 12:26:43;;;;;;;17.97;3.20;;;7.80;99.90;;;;;;7373863;19;20035;-64
2024/01/01 12:29:12;;;;;;;9.43;2.47;;;7.80;99.90;;;;;;7373196;19;20019;-64
2024/01/01 12:31:40;;;;;;;11.00;2.10;;;7.90;99.90;;;;;;7376038;19;20014;-64
2024/01/01 12:34:08;;;;;;;10.45;2.53;;;7.90;99.90;;;;;;7370466;19;20006;-64
2024/01/01 12:36:35;;;;;;;9.10;2.10;;;7.90;99.90;;;;;;7381869;19;20018;-68
2024/01/01 12:39:02;;;;;;;15.73;2.35;;;8.00;99.90;;;;;;7392608;19;20017;-68
2024/01/01 12:41:32;;;;;;;8.73;2.22;;;8.00;99.90;;;;;;7393664;19;20332;-68
2024/01/01 12:44:10;;;;;;;11.00;3.72;;;8.00;99.90;;;;;;7394453;19;20011;-67
2024/01/01 12:46:39;;;;;;;12.20;2.80;;;8.00;99.90;;;;;;7394085;19;20018;-68
2024/01/01 12:49:06;;;;;;;7.88;2.03;;;8.00;99.90;;;;;;7394192;19;20470;-68
2024/01/01 12:51:54;;;;;;;12.48;2.60;;;8.10;99.90;;;;;;7381599;19;20015;-68